Main page
METAR-TAF:

METAR-TAF

Airports :

Shuttle Landing Facility

Kennedy Space Center, Florida, United States

latitude: 28-37N, longitude: 080-43W, elevation: 10 ft

Current weather observation

The report was made 18 minutes ago, at 11:10 UTC
Wind 10 mph from the East/Northeast with gusts up to 23 mph
Temperature 75°F
Humidity 83%
Pressure 30.04 in. Hg
Visibility: 9 miles
Few clouds at a height of 2900 ft
Overcast at a height of 4000 ft

METAR: KTTS 211110Z AUTO 06009G20KT 9SM FEW029 OVC040 24/21 A3004 RMK AO2 RAE10 SLP177 $

Time: 07:28 (11:28 UTC)


TAF: missing

Weather observations and forecasts of more than 4000 airports (METAR and TAF reports).

The available stations are represented by yellow and red dots on the map.

Hover mouse over dot to see the name of the station.

Then click to see weather observations and forecasts.

To change the map : click on the green buttons with a black cross to zoom in, on the green button with a dash to zoom out, or on the green arrows for adjacent maps.


METAR-TAF: